sensor_id;sensor_type;location;lat;lon;timestamp;P1;durP1;ratioP1;P2;durP2;ratioP2
10805;SDS011;5455;53.224;6.000;2022-08-14T00:02:01;5.13;;;2.97;;
10805;SDS011;5455;53.224;6.000;2022-08-14T00:04:31;7.00;;;3.20;;
10805;SDS011;5455;53.224;6.000;2022-08-14T00:07:10;3.90;;;3.03;;
10805;SDS011;5455;53.224;6.000;2022-08-14T00:09:40;5.10;;;3.07;;
10805;SDS011;5455;53.224;6.000;2022-08-14T00:12:32;4.50;;;3.30;;
10805;SDS011;5455;53.224;6.000;2022-08-14T00:15:20;4.93;;;3.77;;
10805;SDS011;5455;53.224;6.000;2022-08-14T00:17:55;4.77;;;3.40;;
10805;SDS011;5455;53.224;6.000;2022-08-14T00:20:27;4.83;;;3.30;;
10805;SDS011;5455;53.224;6.000;2022-08-14T00:23:02;3.80;;;3.50;;
10805;SDS011;5455;53.224;6.000;2022-08-14T00:25:44;4.17;;;3.53;;
10805;SDS011;5455;53.224;6.000;2022-08-14T00:28:32;5.13;;;3.50;;
10805;SDS011;5455;53.224;6.000;2022-08-14T00:31:03;3.50;;;3.20;;
10805;SDS011;5455;53.224;6.000;2022-08-14T00:33:33;3.80;;;3.40;;
10805;SDS011;5455;53.224;6.000;2022-08-14T00:36:18;6.37;;;3.80;;
10805;SDS011;5455;53.224;6.000;2022-08-14T00:39:12;4.40;;;3.73;;
10805;SDS011;5455;53.224;6.000;2022-08-14T00:41:44;7.20;;;3.97;;
10805;SDS011;5455;53.224;6.000;2022-08-14T00:44:13;5.30;;;3.67;;
10805;SDS011;5455;53.224;6.000;2022-08-14T00:46:51;7.63;;;4.30;;
10805;SDS011;5455;53.224;6.000;2022-08-14T00:49:24;6.37;;;4.13;;
10805;SDS011;5455;53.224;6.000;2022-08-14T00:51:52;6.77;;;4.67;;
10805;SDS011;5455;53.224;6.000;2022-08-14T00:54:19;6.23;;;4.07;;
10805;SDS011;5455;53.224;6.000;2022-08-14T00:56:48;4.40;;;4.00;;
10805;SDS011;5455;53.224;6.000;2022-08-14T00:59:22;7.23;;;4.50;;
10805;SDS011;5455;53.224;6.000;2022-08-14T01:01:51;5.17;;;4.27;;
10805;SDS011;5455;53.224;6.000;2022-08-14T01:04:24;9.93;;;4.27;;
10805;SDS011;5455;53.224;6.000;2022-08-14T01:07:12;6.00;;;4.20;;
10805;SDS011;5455;53.224;6.000;2022-08-14T01:09:47;6.80;;;4.20;;
10805;SDS011;5455;53.224;6.000;2022-08-14T01:12:19;7.50;;;4.30;;
10805;SDS011;5455;53.224;6.000;2022-08-14T01:14:56;9.30;;;4.50;;
10805;SDS011;5455;53.224;6.000;2022-08-14T01:17:25;5.53;;;4.00;;
10805;SDS011;5455;53.224;6.000;2022-08-14T01:20:16;5.67;;;4.30;;
10805;SDS011;5455;53.224;6.000;2022-08-14T01:23:09;5.20;;;4.17;;
10805;SDS011;5455;53.224;6.000;2022-08-14T01:25:43;7.67;;;4.60;;
10805;SDS011;5455;53.224;6.000;2022-08-14T01:28:11;5.23;;;4.20;;
10805;SDS011;5455;53.224;6.000;2022-08-14T01:30:59;7.13;;;5.00;;
10805;SDS011;5455;53.224;6.000;2022-08-14T01:33:28;6.00;;;4.40;;
10805;SDS011;5455;53.224;6.000;2022-08-14T01:36:16;7.47;;;4.70;;
10805;SDS011;5455;53.224;6.000;2022-08-14T01:38:49;7.00;;;5.10;;
10805;SDS011;5455;53.224;6.000;2022-08-14T01:41:20;7.07;;;4.80;;
10805;SDS011;5455;53.224;6.000;2022-08-14T01:43:58;6.13;;;4.90;;
10805;SDS011;5455;53.224;6.000;2022-08-14T01:46:28;6.80;;;4.70;;
10805;SDS011;5455;53.224;6.000;2022-08-14T01:49:04;6.07;;;4.90;;
10805;SDS011;5455;53.224;6.000;2022-08-14T01:51:33;7.47;;;4.77;;
10805;SDS011;5455;53.224;6.000;2022-08-14T01:54:04;8.30;;;4.93;;
10805;SDS011;5455;53.224;6.000;2022-08-14T01:56:40;5.60;;;4.77;;
10805;SDS011;5455;53.224;6.000;2022-08-14T02:01:47;5.37;;;4.87;;
10805;SDS011;5455;53.224;6.000;2022-08-14T02:04:27;6.10;;;4.73;;
10805;SDS011;5455;53.224;6.000;2022-08-14T02:07:19;6.80;;;5.07;;
10805;SDS011;5455;53.224;6.000;2022-08-14T02:10:07;7.77;;;5.07;;
10805;SDS011;5455;53.224;6.000;2022-08-14T02:12:44;6.77;;;5.57;;
10805;SDS011;5455;53.224;6.000;2022-08-14T02:15:19;8.60;;;4.93;;
10805;SDS011;5455;53.224;6.000;2022-08-14T02:17:48;8.00;;;5.07;;
10805;SDS011;5455;53.224;6.000;2022-08-14T02:20:16;6.20;;;5.47;;
10805;SDS011;5455;53.224;6.000;2022-08-14T02:22:50;5.77;;;4.97;;
10805;SDS011;5455;53.224;6.000;2022-08-14T02:25:20;6.83;;;5.10;;
10805;SDS011;5455;53.224;6.000;2022-08-14T02:27:51;5.97;;;4.93;;
10805;SDS011;5455;53.224;6.000;2022-08-14T02:30:42;5.93;;;4.93;;
10805;SDS011;5455;53.224;6.000;2022-08-14T02:33:10;6.67;;;4.83;;
10805;SDS011;5455;53.224;6.000;2022-08-14T02:35:43;6.33;;;5.00;;
10805;SDS011;5455;53.224;6.000;2022-08-14T02:38:19;6.93;;;5.13;;
10805;SDS011;5455;53.224;6.000;2022-08-14T02:40:56;6.57;;;5.20;;
10805;SDS011;5455;53.224;6.000;2022-08-14T02:43:24;8.50;;;4.97;;
10805;SDS011;5455;53.224;6.000;2022-08-14T02:46:11;7.97;;;5.37;;
10805;SDS011;5455;53.224;6.000;2022-08-14T02:48:39;9.00;;;5.30;;
10805;SDS011;5455;53.224;6.000;2022-08-14T02:51:27;9.57;;;5.47;;
10805;SDS011;5455;53.224;6.000;2022-08-14T02:53:56;6.70;;;5.57;;
10805;SDS011;5455;53.224;6.000;2022-08-14T02:56:23;7.33;;;5.60;;
10805;SDS011;5455;53.224;6.000;2022-08-14T02:59:12;7.37;;;5.73;;
10805;SDS011;5455;53.224;6.000;2022-08-14T03:01:42;7.10;;;6.00;;
10805;SDS011;5455;53.224;6.000;2022-08-14T03:04:20;9.17;;;5.67;;
10805;SDS011;5455;53.224;6.000;2022-08-14T03:06:50;8.33;;;6.03;;
10805;SDS011;5455;53.224;6.000;2022-08-14T03:09:36;9.13;;;6.27;;
10805;SDS011;5455;53.224;6.000;2022-08-14T03:12:25;7.73;;;5.60;;
10805;SDS011;5455;53.224;6.000;2022-08-14T03:15:06;8.13;;;5.80;;
10805;SDS011;5455;53.224;6.000;2022-08-14T03:17:41;7.70;;;5.97;;
10805;SDS011;5455;53.224;6.000;2022-08-14T03:20:24;8.10;;;5.90;;
10805;SDS011;5455;53.224;6.000;2022-08-14T03:22:56;7.67;;;5.90;;
10805;SDS011;5455;53.224;6.000;2022-08-14T03:25:25;8.20;;;6.00;;
10805;SDS011;5455;53.224;6.000;2022-08-14T03:27:53;9.37;;;6.43;;
10805;SDS011;5455;53.224;6.000;2022-08-14T03:30:25;9.57;;;6.10;;
10805;SDS011;5455;53.224;6.000;2022-08-14T03:33:05;6.37;;;5.70;;
10805;SDS011;5455;53.224;6.000;2022-08-14T03:35:36;7.53;;;6.30;;
10805;SDS011;5455;53.224;6.000;2022-08-14T03:38:25;10.60;;;6.53;;
10805;SDS011;5455;53.224;6.000;2022-08-14T03:41:13;10.03;;;6.50;;
10805;SDS011;5455;53.224;6.000;2022-08-14T03:43:43;9.30;;;6.77;;
10805;SDS011;5455;53.224;6.000;2022-08-14T03:46:32;7.07;;;6.00;;
10805;SDS011;5455;53.224;6.000;2022-08-14T03:49:21;7.40;;;6.60;;
10805;SDS011;5455;53.224;6.000;2022-08-14T03:51:54;8.83;;;6.73;;
10805;SDS011;5455;53.224;6.000;2022-08-14T03:54:23;7.63;;;6.40;;
10805;SDS011;5455;53.224;6.000;2022-08-14T03:56:51;10.27;;;6.87;;
10805;SDS011;5455;53.224;6.000;2022-08-14T03:59:20;8.23;;;6.17;;
10805;SDS011;5455;53.224;6.000;2022-08-14T04:01:48;7.60;;;6.33;;
10805;SDS011;5455;53.224;6.000;2022-08-14T04:04:28;9.33;;;6.70;;
10805;SDS011;5455;53.224;6.000;2022-08-14T04:06:56;10.27;;;6.83;;
10805;SDS011;5455;53.224;6.000;2022-08-14T04:09:25;8.30;;;6.67;;
10805;SDS011;5455;53.224;6.000;2022-08-14T04:11:53;9.07;;;6.40;;
10805;SDS011;5455;53.224;6.000;2022-08-14T04:14:23;7.50;;;6.33;;
10805;SDS011;5455;53.224;6.000;2022-08-14T04:16:50;8.10;;;6.63;;
10805;SDS011;5455;53.224;6.000;2022-08-14T04:19:17;7.70;;;6.27;;
10805;SDS011;5455;53.224;6.000;2022-08-14T04:21:53;7.47;;;6.33;;
10805;SDS011;5455;53.224;6.000;2022-08-14T04:24:30;8.80;;;6.50;;
10805;SDS011;5455;53.224;6.000;2022-08-14T04:27:06;10.67;;;6.07;;
10805;SDS011;5455;53.224;6.000;2022-08-14T04:29:38;10.80;;;7.00;;
10805;SDS011;5455;53.224;6.000;2022-08-14T04:32:09;9.23;;;7.10;;
10805;SDS011;5455;53.224;6.000;2022-08-14T04:34:57;11.50;;;6.50;;
10805;SDS011;5455;53.224;6.000;2022-08-14T04:37:25;7.60;;;6.27;;
10805;SDS011;5455;53.224;6.000;2022-08-14T04:40:11;7.00;;;6.30;;
10805;SDS011;5455;53.224;6.000;2022-08-14T04:42:58;8.77;;;6.70;;
10805;SDS011;5455;53.224;6.000;2022-08-14T04:45:46;10.03;;;6.50;;
10805;SDS011;5455;53.224;6.000;2022-08-14T04:48:18;8.90;;;6.33;;
10805;SDS011;5455;53.224;6.000;2022-08-14T04:51:07;8.53;;;6.47;;
10805;SDS011;5455;53.224;6.000;2022-08-14T04:53:37;7.60;;;6.20;;
10805;SDS011;5455;53.224;6.000;2022-08-14T04:56:10;6.93;;;6.13;;
10805;SDS011;5455;53.224;6.000;2022-08-14T04:58:59;7.20;;;6.43;;
10805;SDS011;5455;53.224;6.000;2022-08-14T05:01:37;9.13;;;6.50;;
10805;SDS011;5455;53.224;6.000;2022-08-14T05:04:15;7.33;;;6.47;;
10805;SDS011;5455;53.224;6.000;2022-08-14T05:06:46;7.40;;;6.57;;
10805;SDS011;5455;53.224;6.000;2022-08-14T05:09:20;10.67;;;6.60;;
10805;SDS011;5455;53.224;6.000;2022-08-14T05:11:56;8.20;;;6.50;;
10805;SDS011;5455;53.224;6.000;2022-08-14T05:14:43;7.47;;;6.30;;
10805;SDS011;5455;53.224;6.000;2022-08-14T05:17:21;12.60;;;6.40;;
10805;SDS011;5455;53.224;6.000;2022-08-14T05:20:09;8.30;;;6.70;;
10805;SDS011;5455;53.224;6.000;2022-08-14T05:22:56;7.93;;;6.47;;
10805;SDS011;5455;53.224;6.000;2022-08-14T05:25:26;8.93;;;6.23;;
10805;SDS011;5455;53.224;6.000;2022-08-14T05:28:33;11.03;;;6.93;;
10805;SDS011;5455;53.224;6.000;2022-08-14T05:30:54;8.67;;;6.47;;
10805;SDS011;5455;53.224;6.000;2022-08-14T05:33:23;9.10;;;6.60;;
10805;SDS011;5455;53.224;6.000;2022-08-14T05:35:56;9.47;;;6.67;;
10805;SDS011;5455;53.224;6.000;2022-08-14T05:38:31;7.87;;;6.57;;
10805;SDS011;5455;53.224;6.000;2022-08-14T05:41:04;10.07;;;6.50;;
10805;SDS011;5455;53.224;6.000;2022-08-14T05:43:34;8.07;;;6.17;;
10805;SDS011;5455;53.224;6.000;2022-08-14T05:46:10;7.40;;;5.97;;
10805;SDS011;5455;53.224;6.000;2022-08-14T05:48:41;7.13;;;6.13;;
10805;SDS011;5455;53.224;6.000;2022-08-14T05:51:09;8.77;;;6.53;;
10805;SDS011;5455;53.224;6.000;2022-08-14T05:53:38;7.23;;;6.03;;
10805;SDS011;5455;53.224;6.000;2022-08-14T05:56:08;7.20;;;5.90;;
10805;SDS011;5455;53.224;6.000;2022-08-14T05:58:35;9.17;;;6.40;;
10805;SDS011;5455;53.224;6.000;2022-08-14T06:01:06;8.13;;;6.30;;
10805;SDS011;5455;53.224;6.000;2022-08-14T06:03:35;8.90;;;6.33;;
10805;SDS011;5455;53.224;6.000;2022-08-14T06:06:05;8.17;;;6.37;;
10805;SDS011;5455;53.224;6.000;2022-08-14T06:08:33;7.97;;;6.23;;
10805;SDS011;5455;53.224;6.000;2022-08-14T06:11:06;6.60;;;5.90;;
10805;SDS011;5455;53.224;6.000;2022-08-14T06:13:35;8.00;;;5.93;;
10805;SDS011;5455;53.224;6.000;2022-08-14T06:16:10;10.63;;;5.90;;
10805;SDS011;5455;53.224;6.000;2022-08-14T06:18:44;9.00;;;6.13;;
10805;SDS011;5455;53.224;6.000;2022-08-14T06:21:13;9.03;;;5.80;;
10805;SDS011;5455;53.224;6.000;2022-08-14T06:23:42;9.37;;;6.20;;
10805;SDS011;5455;53.224;6.000;2022-08-14T06:26:15;10.90;;;6.10;;
10805;SDS011;5455;53.224;6.000;2022-08-14T06:28:46;9.23;;;6.13;;
10805;SDS011;5455;53.224;6.000;2022-08-14T06:31:19;9.07;;;6.30;;
10805;SDS011;5455;53.224;6.000;2022-08-14T06:33:48;11.17;;;6.03;;
10805;SDS011;5455;53.224;6.000;2022-08-14T06:36:36;11.40;;;5.73;;
10805;SDS011;5455;53.224;6.000;2022-08-14T06:39:05;7.10;;;6.17;;
10805;SDS011;5455;53.224;6.000;2022-08-14T06:41:35;9.73;;;6.50;;
10805;SDS011;5455;53.224;6.000;2022-08-14T06:44:22;11.37;;;6.10;;
10805;SDS011;5455;53.224;6.000;2022-08-14T06:46:59;8.27;;;6.10;;
10805;SDS011;5455;53.224;6.000;2022-08-14T06:49:30;11.40;;;6.20;;
10805;SDS011;5455;53.224;6.000;2022-08-14T06:52:15;6.77;;;5.80;;
10805;SDS011;5455;53.224;6.000;2022-08-14T06:54:43;8.30;;;6.20;;
10805;SDS011;5455;53.224;6.000;2022-08-14T06:57:11;10.50;;;6.30;;
10805;SDS011;5455;53.224;6.000;2022-08-14T06:59:39;8.17;;;5.50;;
10805;SDS011;5455;53.224;6.000;2022-08-14T07:02:08;8.87;;;5.70;;
10805;SDS011;5455;53.224;6.000;2022-08-14T07:04:54;7.60;;;5.80;;
10805;SDS011;5455;53.224;6.000;2022-08-14T07:07:48;7.70;;;5.90;;
10805;SDS011;5455;53.224;6.000;2022-08-14T07:10:17;8.40;;;5.50;;
10805;SDS011;5455;53.224;6.000;2022-08-14T07:12:45;6.97;;;5.37;;
10805;SDS011;5455;53.224;6.000;2022-08-14T07:15:29;7.13;;;5.50;;
10805;SDS011;5455;53.224;6.000;2022-08-14T07:18:05;7.70;;;5.87;;
10805;SDS011;5455;53.224;6.000;2022-08-14T07:20:34;7.17;;;6.00;;
10805;SDS011;5455;53.224;6.000;2022-08-14T07:23:02;9.00;;;6.13;;
10805;SDS011;5455;53.224;6.000;2022-08-14T07:25:37;8.63;;;5.43;;
10805;SDS011;5455;53.224;6.000;2022-08-14T07:28:09;8.10;;;6.07;;
10805;SDS011;5455;53.224;6.000;2022-08-14T07:30:47;8.30;;;6.27;;
10805;SDS011;5455;53.224;6.000;2022-08-14T07:33:18;7.30;;;6.13;;
10805;SDS011;5455;53.224;6.000;2022-08-14T07:35:55;7.70;;;6.03;;
10805;SDS011;5455;53.224;6.000;2022-08-14T07:38:25;7.17;;;5.70;;
10805;SDS011;5455;53.224;6.000;2022-08-14T07:41:01;9.00;;;5.30;;
10805;SDS011;5455;53.224;6.000;2022-08-14T07:43:38;7.27;;;5.90;;
10805;SDS011;5455;53.224;6.000;2022-08-14T07:46:12;8.20;;;5.77;;
10805;SDS011;5455;53.224;6.000;2022-08-14T07:48:46;6.63;;;5.50;;
10805;SDS011;5455;53.224;6.000;2022-08-14T07:51:14;6.03;;;5.43;;
10805;SDS011;5455;53.224;6.000;2022-08-14T07:53:42;7.57;;;5.33;;
10805;SDS011;5455;53.224;6.000;2022-08-14T07:56:12;8.57;;;5.77;;
10805;SDS011;5455;53.224;6.000;2022-08-14T07:59:00;7.30;;;5.40;;
10805;SDS011;5455;53.224;6.000;2022-08-14T08:01:27;8.27;;;5.40;;
10805;SDS011;5455;53.224;6.000;2022-08-14T08:03:56;5.87;;;5.00;;
10805;SDS011;5455;53.224;6.000;2022-08-14T08:06:28;7.83;;;4.97;;
10805;SDS011;5455;53.224;6.000;2022-08-14T08:08:57;7.83;;;5.43;;
10805;SDS011;5455;53.224;6.000;2022-08-14T08:11:32;7.27;;;5.60;;
10805;SDS011;5455;53.224;6.000;2022-08-14T08:14:04;6.30;;;5.30;;
10805;SDS011;5455;53.224;6.000;2022-08-14T08:16:41;6.57;;;5.10;;
10805;SDS011;5455;53.224;6.000;2022-08-14T08:19:09;4.90;;;4.40;;
10805;SDS011;5455;53.224;6.000;2022-08-14T08:21:39;9.37;;;5.23;;
10805;SDS011;5455;53.224;6.000;2022-08-14T08:24:10;7.40;;;5.00;;
10805;SDS011;5455;53.224;6.000;2022-08-14T08:26:45;8.23;;;4.97;;
10805;SDS011;5455;53.224;6.000;2022-08-14T08:29:17;6.80;;;5.00;;
10805;SDS011;5455;53.224;6.000;2022-08-14T08:31:54;7.33;;;5.03;;
10805;SDS011;5455;53.224;6.000;2022-08-14T08:34:27;10.03;;;5.47;;
10805;SDS011;5455;53.224;6.000;2022-08-14T08:36:57;6.50;;;4.93;;
10805;SDS011;5455;53.224;6.000;2022-08-14T08:39:30;7.37;;;4.80;;
10805;SDS011;5455;53.224;6.000;2022-08-14T08:42:28;6.73;;;5.27;;
10805;SDS011;5455;53.224;6.000;2022-08-14T08:45:04;4.80;;;4.23;;
10805;SDS011;5455;53.224;6.000;2022-08-14T08:47:40;7.43;;;4.77;;
10805;SDS011;5455;53.224;6.000;2022-08-14T08:50:25;5.60;;;4.77;;
10805;SDS011;5455;53.224;6.000;2022-08-14T08:53:05;7.10;;;4.80;;
10805;SDS011;5455;53.224;6.000;2022-08-14T08:58:04;6.73;;;4.77;;
10805;SDS011;5455;53.224;6.000;2022-08-14T09:00:44;6.30;;;5.27;;
10805;SDS011;5455;53.224;6.000;2022-08-14T09:03:21;7.97;;;5.20;;
10805;SDS011;5455;53.224;6.000;2022-08-14T09:05:57;7.70;;;4.33;;
10805;SDS011;5455;53.224;6.000;2022-08-14T09:08:48;5.60;;;5.00;;
10805;SDS011;5455;53.224;6.000;2022-08-14T09:11:16;5.20;;;4.70;;
10805;SDS011;5455;53.224;6.000;2022-08-14T09:13:48;7.30;;;4.80;;
10805;SDS011;5455;53.224;6.000;2022-08-14T09:16:22;6.63;;;4.40;;
10805;SDS011;5455;53.224;6.000;2022-08-14T09:18:51;6.03;;;4.90;;
10805;SDS011;5455;53.224;6.000;2022-08-14T09:21:20;5.10;;;4.53;;
10805;SDS011;5455;53.224;6.000;2022-08-14T09:23:53;4.90;;;4.37;;
10805;SDS011;5455;53.224;6.000;2022-08-14T09:26:42;9.37;;;5.03;;
10805;SDS011;5455;53.224;6.000;2022-08-14T09:29:15;5.20;;;4.67;;
10805;SDS011;5455;53.224;6.000;2022-08-14T09:31:47;6.90;;;4.73;;
10805;SDS011;5455;53.224;6.000;2022-08-14T09:46:23;5.53;;;4.60;;
10805;SDS011;5455;53.224;6.000;2022-08-14T09:49:00;5.43;;;4.30;;
10805;SDS011;5455;53.224;6.000;2022-08-14T09:51:29;9.10;;;4.80;;
10805;SDS011;5455;53.224;6.000;2022-08-14T09:54:17;5.93;;;4.57;;
10805;SDS011;5455;53.224;6.000;2022-08-14T09:56:49;7.23;;;4.20;;
10805;SDS011;5455;53.224;6.000;2022-08-14T09:59:22;4.83;;;4.33;;
10805;SDS011;5455;53.224;6.000;2022-08-14T10:01:53;6.07;;;4.67;;
10805;SDS011;5455;53.224;6.000;2022-08-14T10:04:23;5.80;;;4.93;;
10805;SDS011;5455;53.224;6.000;2022-08-14T10:07:03;6.10;;;4.10;;
10805;SDS011;5455;53.224;6.000;2022-08-14T10:09:33;4.50;;;4.03;;
10805;SDS011;5455;53.224;6.000;2022-08-14T10:12:42;6.63;;;3.53;;
10805;SDS011;5455;53.224;6.000;2022-08-14T10:15:29;5.70;;;4.47;;
10805;SDS011;5455;53.224;6.000;2022-08-14T10:18:05;4.20;;;3.83;;
10805;SDS011;5455;53.224;6.000;2022-08-14T10:20:53;5.00;;;4.00;;
10805;SDS011;5455;53.224;6.000;2022-08-14T10:23:26;4.17;;;3.63;;
10805;SDS011;5455;53.224;6.000;2022-08-14T10:26:07;5.90;;;4.63;;
10805;SDS011;5455;53.224;6.000;2022-08-14T10:28:48;5.43;;;3.90;;
10805;SDS011;5455;53.224;6.000;2022-08-14T10:31:37;5.70;;;4.00;;
10805;SDS011;5455;53.224;6.000;2022-08-14T10:34:11;4.27;;;3.87;;
10805;SDS011;5455;53.224;6.000;2022-08-14T10:36:41;5.87;;;3.93;;
10805;SDS011;5455;53.224;6.000;2022-08-14T10:39:17;4.30;;;3.90;;
10805;SDS011;5455;53.224;6.000;2022-08-14T10:41:47;4.80;;;3.80;;
10805;SDS011;5455;53.224;6.000;2022-08-14T10:44:21;5.60;;;4.10;;
10805;SDS011;5455;53.224;6.000;2022-08-14T10:46:55;5.43;;;3.87;;
10805;SDS011;5455;53.224;6.000;2022-08-14T10:50:04;5.93;;;3.97;;
10805;SDS011;5455;53.224;6.000;2022-08-14T10:52:32;5.57;;;3.97;;
10805;SDS011;5455;53.224;6.000;2022-08-14T10:55:05;4.63;;;4.20;;
10805;SDS011;5455;53.224;6.000;2022-08-14T10:57:49;5.27;;;4.00;;
10805;SDS011;5455;53.224;6.000;2022-08-14T11:00:20;5.77;;;4.30;;
10805;SDS011;5455;53.224;6.000;2022-08-14T11:08:29;4.20;;;3.80;;
10805;SDS011;5455;53.224;6.000;2022-08-14T11:10:58;4.83;;;3.83;;
10805;SDS011;5455;53.224;6.000;2022-08-14T11:13:28;6.60;;;4.37;;
10805;SDS011;5455;53.224;6.000;2022-08-14T11:15:57;5.23;;;4.50;;
10805;SDS011;5455;53.224;6.000;2022-08-14T11:18:29;4.33;;;3.93;;
10805;SDS011;5455;53.224;6.000;2022-08-14T11:21:06;4.57;;;4.00;;
10805;SDS011;5455;53.224;6.000;2022-08-14T11:23:36;5.20;;;4.00;;
10805;SDS011;5455;53.224;6.000;2022-08-14T11:26:10;5.63;;;4.03;;
10805;SDS011;5455;53.224;6.000;2022-08-14T11:28:39;7.13;;;4.07;;
10805;SDS011;5455;53.224;6.000;2022-08-14T11:31:19;4.70;;;3.90;;
10805;SDS011;5455;53.224;6.000;2022-08-14T11:33:50;5.77;;;3.90;;
10805;SDS011;5455;53.224;6.000;2022-08-14T11:36:25;4.37;;;3.97;;
10805;SDS011;5455;53.224;6.000;2022-08-14T11:39:17;5.53;;;4.10;;
10805;SDS011;5455;53.224;6.000;2022-08-14T11:42:02;4.53;;;3.80;;
10805;SDS011;5455;53.224;6.000;2022-08-14T11:44:51;4.63;;;3.73;;
10805;SDS011;5455;53.224;6.000;2022-08-14T11:47:26;5.70;;;4.43;;
10805;SDS011;5455;53.224;6.000;2022-08-14T11:50:15;4.53;;;4.07;;
10805;SDS011;5455;53.224;6.000;2022-08-14T11:53:02;5.77;;;4.20;;
10805;SDS011;5455;53.224;6.000;2022-08-14T11:55:33;6.03;;;4.20;;
10805;SDS011;5455;53.224;6.000;2022-08-14T11:58:06;4.73;;;4.17;;
10805;SDS011;5455;53.224;6.000;2022-08-14T12:00:45;5.60;;;3.97;;
10805;SDS011;5455;53.224;6.000;2022-08-14T12:03:13;4.10;;;3.70;;
10805;SDS011;5455;53.224;6.000;2022-08-14T12:05:48;3.93;;;3.40;;
10805;SDS011;5455;53.224;6.000;2022-08-14T12:08:16;6.37;;;3.73;;
10805;SDS011;5455;53.224;6.000;2022-08-14T12:10:50;5.60;;;3.70;;
10805;SDS011;5455;53.224;6.000;2022-08-14T12:13:24;5.03;;;3.73;;
10805;SDS011;5455;53.224;6.000;2022-08-14T12:16:02;4.80;;;3.87;;
10805;SDS011;5455;53.224;6.000;2022-08-14T12:18:46;4.10;;;3.73;;
10805;SDS011;5455;53.224;6.000;2022-08-14T12:23:47;4.60;;;3.87;;
10805;SDS011;5455;53.224;6.000;2022-08-14T12:26:27;5.50;;;4.17;;
10805;SDS011;5455;53.224;6.000;2022-08-14T12:29:09;8.17;;;3.73;;
10805;SDS011;5455;53.224;6.000;2022-08-14T12:31:38;10.83;;;5.80;;
10805;SDS011;5455;53.224;6.000;2022-08-14T12:34:13;4.63;;;3.30;;
10805;SDS011;5455;53.224;6.000;2022-08-14T12:36:48;3.90;;;3.43;;
10805;SDS011;5455;53.224;6.000;2022-08-14T12:39:17;5.57;;;3.40;;
10805;SDS011;5455;53.224;6.000;2022-08-14T12:41:51;4.83;;;3.53;;
10805;SDS011;5455;53.224;6.000;2022-08-14T12:44:29;4.87;;;3.57;;
10805;SDS011;5455;53.224;6.000;2022-08-14T12:47:02;3.60;;;3.30;;
10805;SDS011;5455;53.224;6.000;2022-08-14T12:49:32;3.60;;;3.20;;
10805;SDS011;5455;53.224;6.000;2022-08-14T12:52:00;3.43;;;3.00;;
10805;SDS011;5455;53.224;6.000;2022-08-14T12:54:29;3.80;;;3.50;;
10805;SDS011;5455;53.224;6.000;2022-08-14T12:57:07;8.53;;;3.90;;
10805;SDS011;5455;53.224;6.000;2022-08-14T12:59:45;5.27;;;3.10;;
10805;SDS011;5455;53.224;6.000;2022-08-14T13:02:20;3.90;;;3.10;;
10805;SDS011;5455;53.224;6.000;2022-08-14T13:04:55;3.80;;;3.50;;
10805;SDS011;5455;53.224;6.000;2022-08-14T13:07:26;3.97;;;3.20;;
10805;SDS011;5455;53.224;6.000;2022-08-14T13:09:58;3.80;;;3.47;;
10805;SDS011;5455;53.224;6.000;2022-08-14T13:12:46;4.23;;;3.40;;
10805;SDS011;5455;53.224;6.000;2022-08-14T13:15:35;3.43;;;2.97;;
10805;SDS011;5455;53.224;6.000;2022-08-14T13:18:05;4.27;;;3.07;;
10805;SDS011;5455;53.224;6.000;2022-08-14T13:20:35;4.57;;;3.07;;
10805;SDS011;5455;53.224;6.000;2022-08-14T13:23:02;4.33;;;3.17;;
10805;SDS011;5455;53.224;6.000;2022-08-14T13:25:32;4.10;;;3.20;;
10805;SDS011;5455;53.224;6.000;2022-08-14T13:28:02;3.90;;;2.97;;
10805;SDS011;5455;53.224;6.000;2022-08-14T13:30:36;4.73;;;3.67;;
10805;SDS011;5455;53.224;6.000;2022-08-14T13:33:08;4.83;;;3.70;;
10805;SDS011;5455;53.224;6.000;2022-08-14T13:35:43;4.77;;;3.70;;
10805;SDS011;5455;53.224;6.000;2022-08-14T13:38:17;3.77;;;3.20;;
10805;SDS011;5455;53.224;6.000;2022-08-14T13:40:54;5.67;;;3.77;;
10805;SDS011;5455;53.224;6.000;2022-08-14T13:43:22;5.73;;;3.97;;
10805;SDS011;5455;53.224;6.000;2022-08-14T13:46:02;5.50;;;3.47;;
10805;SDS011;5455;53.224;6.000;2022-08-14T13:48:29;6.17;;;3.43;;
10805;SDS011;5455;53.224;6.000;2022-08-14T13:51:02;4.33;;;3.30;;
10805;SDS011;5455;53.224;6.000;2022-08-14T13:53:39;4.73;;;3.63;;
10805;SDS011;5455;53.224;6.000;2022-08-14T13:56:30;4.17;;;3.67;;
10805;SDS011;5455;53.224;6.000;2022-08-14T13:59:03;7.63;;;4.10;;
10805;SDS011;5455;53.224;6.000;2022-08-14T14:01:32;5.27;;;4.07;;
10805;SDS011;5455;53.224;6.000;2022-08-14T14:04:12;5.27;;;3.67;;
10805;SDS011;5455;53.224;6.000;2022-08-14T14:06:46;4.37;;;3.80;;
10805;SDS011;5455;53.224;6.000;2022-08-14T14:09:20;5.03;;;4.10;;
10805;SDS011;5455;53.224;6.000;2022-08-14T14:12:02;4.10;;;3.70;;
10805;SDS011;5455;53.224;6.000;2022-08-14T14:14:54;6.47;;;4.10;;
10805;SDS011;5455;53.224;6.000;2022-08-14T14:17:21;5.27;;;4.20;;
10805;SDS011;5455;53.224;6.000;2022-08-14T14:19:54;4.90;;;4.40;;
10805;SDS011;5455;53.224;6.000;2022-08-14T14:22:22;4.83;;;4.27;;
10805;SDS011;5455;53.224;6.000;2022-08-14T14:25:13;4.87;;;4.10;;
10805;SDS011;5455;53.224;6.000;2022-08-14T14:27:47;6.43;;;4.50;;
10805;SDS011;5455;53.224;6.000;2022-08-14T14:30:19;4.80;;;4.30;;
10805;SDS011;5455;53.224;6.000;2022-08-14T14:33:08;6.40;;;4.47;;
10805;SDS011;5455;53.224;6.000;2022-08-14T14:35:58;4.90;;;4.30;;
10805;SDS011;5455;53.224;6.000;2022-08-14T14:38:30;5.93;;;4.40;;
10805;SDS011;5455;53.224;6.000;2022-08-14T14:40:59;4.87;;;4.03;;
10805;SDS011;5455;53.224;6.000;2022-08-14T14:43:31;5.20;;;4.20;;
10805;SDS011;5455;53.224;6.000;2022-08-14T14:46:00;5.90;;;4.50;;
10805;SDS011;5455;53.224;6.000;2022-08-14T14:48:36;6.63;;;4.40;;
10805;SDS011;5455;53.224;6.000;2022-08-14T14:51:19;4.27;;;3.87;;
10805;SDS011;5455;53.224;6.000;2022-08-14T14:53:47;4.57;;;4.07;;
10805;SDS011;5455;53.224;6.000;2022-08-14T14:56:15;4.47;;;4.07;;
10805;SDS011;5455;53.224;6.000;2022-08-14T14:59:02;6.20;;;3.80;;
10805;SDS011;5455;53.224;6.000;2022-08-14T15:01:30;4.77;;;4.23;;
10805;SDS011;5455;53.224;6.000;2022-08-14T15:04:05;4.23;;;3.83;;
10805;SDS011;5455;53.224;6.000;2022-08-14T15:06:47;4.77;;;4.27;;
10805;SDS011;5455;53.224;6.000;2022-08-14T15:09:15;6.10;;;3.87;;
10805;SDS011;5455;53.224;6.000;2022-08-14T15:11:44;4.90;;;4.37;;
10805;SDS011;5455;53.224;6.000;2022-08-14T15:14:12;4.63;;;4.20;;
10805;SDS011;5455;53.224;6.000;2022-08-14T15:17:00;3.70;;;3.40;;
10805;SDS011;5455;53.224;6.000;2022-08-14T15:19:28;4.60;;;4.13;;
10805;SDS011;5455;53.224;6.000;2022-08-14T15:21:56;4.53;;;4.13;;
10805;SDS011;5455;53.224;6.000;2022-08-14T15:24:23;7.30;;;4.27;;
10805;SDS011;5455;53.224;6.000;2022-08-14T15:26:53;3.90;;;3.57;;
10805;SDS011;5455;53.224;6.000;2022-08-14T15:29:24;4.33;;;3.93;;
10805;SDS011;5455;53.224;6.000;2022-08-14T15:31:51;5.87;;;4.07;;
10805;SDS011;5455;53.224;6.000;2022-08-14T15:34:19;4.90;;;3.40;;
10805;SDS011;5455;53.224;6.000;2022-08-14T15:37:07;6.87;;;4.33;;
10805;SDS011;5455;53.224;6.000;2022-08-14T15:39:38;4.87;;;3.77;;
10805;SDS011;5455;53.224;6.000;2022-08-14T15:42:07;5.23;;;3.77;;
10805;SDS011;5455;53.224;6.000;2022-08-14T15:44:45;5.00;;;3.57;;
10805;SDS011;5455;53.224;6.000;2022-08-14T15:47:24;4.27;;;3.80;;
10805;SDS011;5455;53.224;6.000;2022-08-14T15:49:55;4.30;;;3.90;;
10805;SDS011;5455;53.224;6.000;2022-08-14T15:52:26;4.47;;;4.07;;
10805;SDS011;5455;53.224;6.000;2022-08-14T15:55:02;5.90;;;4.00;;
10805;SDS011;5455;53.224;6.000;2022-08-14T15:57:35;4.60;;;3.60;;
10805;SDS011;5455;53.224;6.000;2022-08-14T16:00:07;4.80;;;3.90;;
10805;SDS011;5455;53.224;6.000;2022-08-14T16:03:09;4.33;;;3.93;;
10805;SDS011;5455;53.224;6.000;2022-08-14T16:05:42;4.73;;;3.73;;
10805;SDS011;5455;53.224;6.000;2022-08-14T16:08:11;3.87;;;3.50;;
10805;SDS011;5455;53.224;6.000;2022-08-14T16:10:56;3.70;;;3.40;;
10805;SDS011;5455;53.224;6.000;2022-08-14T16:13:25;3.37;;;3.07;;
10805;SDS011;5455;53.224;6.000;2022-08-14T16:19:08;4.20;;;3.80;;